createdAt,value
2023-03-22T00:00:35.684Z,7.10
2023-03-22T00:03:27.705Z,7.00
2023-03-22T00:06:04.873Z,7.00
2023-03-22T00:08:41.782Z,6.90
2023-03-22T00:11:18.999Z,6.90
2023-03-22T00:13:55.370Z,6.80
2023-03-22T00:16:31.910Z,6.80
2023-03-22T00:19:08.417Z,6.72
2023-03-22T00:21:44.876Z,6.70
2023-03-22T00:24:21.833Z,6.70
2023-03-22T00:26:58.835Z,6.70
2023-03-22T00:29:35.084Z,6.70
2023-03-22T00:32:12.216Z,6.60
2023-03-22T00:34:49.086Z,6.60
2023-03-22T00:37:27.972Z,6.60
2023-03-22T00:40:04.760Z,6.50
2023-03-22T00:42:42.441Z,6.50
2023-03-22T00:45:19.385Z,6.50
2023-03-22T00:47:56.014Z,6.40
2023-03-22T00:50:32.703Z,6.40
2023-03-22T00:53:09.066Z,6.40
2023-03-22T00:55:45.625Z,6.30
2023-03-22T00:58:22.195Z,6.30
2023-03-22T01:00:58.597Z,6.30
2023-03-22T01:03:38.886Z,6.30
2023-03-22T01:06:16.644Z,6.30
2023-03-22T01:08:55.310Z,6.30
2023-03-22T01:11:31.981Z,6.30
2023-03-22T01:14:09.787Z,6.30
2023-03-22T01:16:46.364Z,6.26
2023-03-22T01:19:23.409Z,6.28
2023-03-22T01:22:00.634Z,6.22
2023-03-22T01:24:37.421Z,6.20
2023-03-22T01:27:13.816Z,6.20
2023-03-22T01:29:50.792Z,6.20
2023-03-22T01:32:27.116Z,6.20
2023-03-22T01:35:03.379Z,6.20
2023-03-22T01:37:39.818Z,6.20
2023-03-22T01:40:19.749Z,6.20
2023-03-22T01:42:57.609Z,6.20
2023-03-22T01:45:46.064Z,6.20
2023-03-22T01:48:31.425Z,6.20
2023-03-22T01:51:15.019Z,6.20
2023-03-22T01:54:36.534Z,6.20
2023-03-22T01:57:19.749Z,6.20
2023-03-22T01:59:56.335Z,6.12
2023-03-22T02:02:52.603Z,6.10
2023-03-22T02:05:38.182Z,6.02
2023-03-22T02:08:15.246Z,6.00
2023-03-22T02:11:22.875Z,6.00
2023-03-22T02:14:34.099Z,5.90
2023-03-22T02:17:51.455Z,5.80
2023-03-22T02:21:31.282Z,5.70
2023-03-22T02:25:24.730Z,5.60
2023-03-22T02:28:36.551Z,5.42
2023-03-22T02:31:49.928Z,5.30
2023-03-22T02:34:57.382Z,5.30
2023-03-22T02:38:18.770Z,5.30
2023-03-22T02:41:04.086Z,5.28
2023-03-22T02:43:52.661Z,5.20
2023-03-22T02:46:40.090Z,5.20
2023-03-22T02:49:32.238Z,5.18
2023-03-22T02:52:17.801Z,5.10
2023-03-22T02:55:05.878Z,5.10
2023-03-22T02:57:54.007Z,5.10
2023-03-22T03:00:32.407Z,5.10
2023-03-22T03:03:15.075Z,5.10
2023-03-22T03:05:58.778Z,5.04
2023-03-22T03:08:36.266Z,5.00
2023-03-22T03:11:14.219Z,5.00
2023-03-22T03:13:52.980Z,5.00
2023-03-22T03:16:36.821Z,5.00
2023-03-22T03:19:27.589Z,4.90
2023-03-22T03:22:18.793Z,4.90
2023-03-22T03:25:03.596Z,4.90
2023-03-22T03:27:49.931Z,4.80
2023-03-22T03:30:39.150Z,4.78
2023-03-22T03:33:25.174Z,4.70
2023-03-22T03:36:08.293Z,4.70
2023-03-22T03:38:52.210Z,4.70
2023-03-22T03:41:33.151Z,4.70
2023-03-22T03:44:10.543Z,4.70
2023-03-22T03:46:49.274Z,4.70
2023-03-22T03:49:27.405Z,4.70
2023-03-22T03:52:05.603Z,4.70
2023-03-22T03:54:42.832Z,4.70
2023-03-22T03:57:23.874Z,4.70
2023-03-22T04:00:00.154Z,4.72
2023-03-22T04:02:55.047Z,4.70
2023-03-22T04:05:56.179Z,4.70
2023-03-22T04:08:33.029Z,4.70
2023-03-22T04:11:10.404Z,4.70
2023-03-22T04:13:48.317Z,4.70
2023-03-22T04:16:26.465Z,4.70
2023-03-22T04:19:03.192Z,4.70
2023-03-22T04:21:39.533Z,4.74
2023-03-22T04:24:17.206Z,4.80
2023-03-22T04:26:54.927Z,4.80
2023-03-22T04:29:36.476Z,4.80
2023-03-22T04:32:27.220Z,4.80
2023-03-22T04:35:05.966Z,4.80
2023-03-22T04:37:43.142Z,4.80
2023-03-22T04:40:26.664Z,4.80
2023-03-22T04:43:13.720Z,4.80
2023-03-22T04:45:58.537Z,4.80
2023-03-22T04:48:42.202Z,4.80
2023-03-22T04:51:20.065Z,4.80
2023-03-22T04:54:43.259Z,4.80
2023-03-22T04:57:19.940Z,4.82
2023-03-22T04:59:57.471Z,4.90
2023-03-22T05:02:33.869Z,4.90
2023-03-22T05:05:12.178Z,4.90
2023-03-22T05:07:49.865Z,4.90
2023-03-22T05:10:26.118Z,4.90
2023-03-22T05:13:02.628Z,4.90
2023-03-22T05:15:49.782Z,4.92
2023-03-22T05:18:28.054Z,4.96
2023-03-22T05:21:11.813Z,5.00
2023-03-22T05:23:51.478Z,5.00
2023-03-22T05:26:30.083Z,5.00
2023-03-22T05:29:06.537Z,5.00
2023-03-22T05:31:55.808Z,5.00
2023-03-22T05:34:35.994Z,5.02
2023-03-22T05:37:23.664Z,5.10
2023-03-22T05:40:05.374Z,5.10
2023-03-22T05:42:45.642Z,5.10
2023-03-22T05:45:29.634Z,5.14
2023-03-22T05:48:18.957Z,5.20
2023-03-22T05:50:55.665Z,5.20
2023-03-22T05:53:33.229Z,5.20
2023-03-22T05:56:24.394Z,5.22
2023-03-22T05:59:04.293Z,5.30
2023-03-22T06:01:41.232Z,5.40
2023-03-22T06:04:27.532Z,5.50
2023-03-22T06:07:06.672Z,5.50
2023-03-22T06:09:52.404Z,5.60
2023-03-22T06:12:31.674Z,5.70
2023-03-22T06:15:25.137Z,5.86
2023-03-22T06:18:16.637Z,6.00
2023-03-22T06:20:55.264Z,6.08
2023-03-22T06:23:33.056Z,6.20
2023-03-22T06:26:11.470Z,6.30
2023-03-22T06:28:48.108Z,6.40
2023-03-22T06:31:24.580Z,6.50
2023-03-22T06:34:12.363Z,6.60
2023-03-22T06:36:51.149Z,6.70
2023-03-22T06:39:42.071Z,6.72
2023-03-22T06:42:18.615Z,6.80
2023-03-22T06:44:56.575Z,6.90
2023-03-22T06:47:39.229Z,6.98
2023-03-22T06:50:40.327Z,7.10
2023-03-22T06:53:21.579Z,7.10
2023-03-22T06:55:58.520Z,7.10
2023-03-22T06:58:35.026Z,7.20
2023-03-22T07:01:11.936Z,7.30
2023-03-22T07:03:48.658Z,7.30
2023-03-22T07:06:26.650Z,7.30
2023-03-22T07:09:04.031Z,7.40
2023-03-22T07:11:43.354Z,7.40
2023-03-22T07:14:19.790Z,7.40
2023-03-22T07:17:16.464Z,7.50
2023-03-22T07:19:53.649Z,7.60
2023-03-22T07:22:32.205Z,7.70
2023-03-22T07:25:11.674Z,7.80
2023-03-22T07:27:48.385Z,7.90
2023-03-22T07:30:25.308Z,8.10
2023-03-22T07:33:01.852Z,8.20
2023-03-22T07:35:39.069Z,8.30
2023-03-22T07:38:15.783Z,8.50
2023-03-22T07:40:55.986Z,8.70
2023-03-22T07:43:47.316Z,8.92
2023-03-22T07:46:47.658Z,9.20
2023-03-22T07:49:33.380Z,9.62
2023-03-22T07:52:16.842Z,9.90
2023-03-22T07:54:53.137Z,10.10
2023-03-22T07:57:29.429Z,10.36
2023-03-22T08:00:12.105Z,10.70
2023-03-22T08:03:03.974Z,10.88
2023-03-22T08:06:08.260Z,11.02
2023-03-22T08:08:44.675Z,11.30
2023-03-22T08:11:21.144Z,11.66
2023-03-22T08:13:57.612Z,12.06
2023-03-22T08:16:34.078Z,12.30
2023-03-22T08:19:11.532Z,12.60
2023-03-22T08:21:48.097Z,12.68
2023-03-22T08:24:36.893Z,12.80
2023-03-22T08:27:16.452Z,12.80
2023-03-22T08:29:59.200Z,12.90
2023-03-22T08:32:37.488Z,12.80
2023-03-22T08:35:16.024Z,12.80
2023-03-22T08:37:56.589Z,12.70
2023-03-22T08:40:36.532Z,12.70
2023-03-22T08:43:13.518Z,12.70
2023-03-22T08:45:50.511Z,12.60
2023-03-22T08:48:30.877Z,12.56
2023-03-22T08:51:23.839Z,12.60
2023-03-22T08:54:10.110Z,12.70
2023-03-22T08:57:39.116Z,12.90
2023-03-22T09:01:03.898Z,12.90
2023-03-22T09:03:46.527Z,12.90
2023-03-22T09:06:23.272Z,12.90
2023-03-22T09:09:00.059Z,12.90
2023-03-22T09:11:37.409Z,12.86
2023-03-22T09:14:15.135Z,12.80
2023-03-22T09:16:52.006Z,12.70
2023-03-22T09:19:28.754Z,12.80
2023-03-22T09:22:05.262Z,12.88
2023-03-22T09:24:49.195Z,13.00
2023-03-22T09:27:25.958Z,13.20
2023-03-22T09:30:02.531Z,13.30
2023-03-22T09:32:41.560Z,13.40
2023-03-22T09:35:19.693Z,13.50
2023-03-22T09:38:06.780Z,13.60
2023-03-22T09:41:00.590Z,13.60
2023-03-22T09:43:43.745Z,13.60
2023-03-22T09:46:31.578Z,13.60
2023-03-22T09:49:15.355Z,13.60
2023-03-22T09:51:54.884Z,13.50
2023-03-22T09:54:39.596Z,13.50
2023-03-22T09:57:30.504Z,13.50
2023-03-22T10:00:23.424Z,13.52
2023-03-22T10:03:21.131Z,13.60
2023-03-22T10:06:07.444Z,13.70
2023-03-22T10:09:00.593Z,13.80
2023-03-22T10:11:48.494Z,13.90
2023-03-22T10:14:39.327Z,14.10
2023-03-22T10:17:25.068Z,14.22
2023-03-22T10:20:09.927Z,14.50
2023-03-22T10:22:51.622Z,14.60
2023-03-22T10:25:38.250Z,14.76
2023-03-22T10:28:28.088Z,14.90
2023-03-22T10:31:06.014Z,15.08
2023-03-22T10:33:50.627Z,15.30
2023-03-22T10:36:35.031Z,15.50
2023-03-22T10:39:24.938Z,15.60
2023-03-22T10:42:06.782Z,15.64
2023-03-22T10:44:51.879Z,15.80
2023-03-22T10:47:41.498Z,15.92
2023-03-22T10:50:28.709Z,16.08
2023-03-22T10:53:12.844Z,16.28
2023-03-22T10:55:49.674Z,16.50
2023-03-22T10:58:32.396Z,16.60
2023-03-22T11:01:14.425Z,16.70
2023-03-22T11:03:57.253Z,16.80
2023-03-22T11:06:39.395Z,16.90
2023-03-22T11:09:23.549Z,17.00
2023-03-22T11:12:02.404Z,17.10
2023-03-22T11:14:45.482Z,17.30
2023-03-22T11:17:27.135Z,17.40
2023-03-22T11:20:07.850Z,17.40
2023-03-22T11:22:48.175Z,17.40
2023-03-22T11:25:32.510Z,17.40
2023-03-22T11:28:23.392Z,17.30
2023-03-22T11:31:11.668Z,17.18
2023-03-22T11:34:02.414Z,17.00
2023-03-22T11:36:54.753Z,16.90
2023-03-22T11:39:37.130Z,16.80
2023-03-22T11:42:23.642Z,16.80
2023-03-22T11:45:00.709Z,16.88
2023-03-22T11:47:41.622Z,16.90
2023-03-22T11:50:33.433Z,16.90
2023-03-22T11:53:17.882Z,16.78
2023-03-22T11:55:58.416Z,16.80
2023-03-22T11:58:55.788Z,16.80
2023-03-22T12:01:45.855Z,16.90
2023-03-22T12:04:30.832Z,17.00
2023-03-22T12:07:15.828Z,17.00
2023-03-22T12:10:01.456Z,17.00
2023-03-22T12:12:45.757Z,17.10
2023-03-22T12:15:28.944Z,17.20
2023-03-22T12:18:13.961Z,17.30
2023-03-22T12:20:57.239Z,17.44
2023-03-22T12:23:36.570Z,17.60
2023-03-22T12:26:21.580Z,17.60
2023-03-22T12:29:03.671Z,17.60
2023-03-22T12:31:52.551Z,17.60
2023-03-22T12:34:41.201Z,17.60
2023-03-22T12:37:28.019Z,17.64
2023-03-22T12:40:19.535Z,17.70
2023-03-22T12:43:11.808Z,17.70
2023-03-22T12:45:54.632Z,17.74
2023-03-22T12:48:40.873Z,17.80
2023-03-22T12:51:18.839Z,17.90
2023-03-22T12:53:59.979Z,18.08
2023-03-22T12:56:44.744Z,18.10
2023-03-22T12:59:28.219Z,18.02
2023-03-22T13:02:18.507Z,18.10
2023-03-22T13:05:01.069Z,18.10
2023-03-22T13:07:58.995Z,18.20
2023-03-22T13:11:05.313Z,18.20
2023-03-22T13:13:50.003Z,18.12
2023-03-22T13:17:00.800Z,18.12
2023-03-22T13:19:52.539Z,18.10
2023-03-22T13:23:11.206Z,18.10
2023-03-22T13:26:06.781Z,18.00
2023-03-22T13:28:44.010Z,17.80
2023-03-22T13:31:45.207Z,17.80
2023-03-22T13:34:33.970Z,17.70
2023-03-22T13:37:31.721Z,17.64
2023-03-22T13:40:25.100Z,17.60
2023-03-22T13:43:24.499Z,17.50
2023-03-22T13:46:50.789Z,17.50
2023-03-22T13:49:59.748Z,17.50
2023-03-22T13:52:45.854Z,17.60
2023-03-22T13:55:58.357Z,17.60
2023-03-22T13:58:56.206Z,17.60
2023-03-22T14:01:39.032Z,17.60
2023-03-22T14:04:22.978Z,17.62
2023-03-22T14:07:19.683Z,17.70
2023-03-22T14:10:01.533Z,17.70
2023-03-22T14:12:55.318Z,17.70
2023-03-22T14:15:37.363Z,17.80
2023-03-22T14:18:25.958Z,17.84
2023-03-22T14:21:09.469Z,17.90
